sensor_id;sensor_type;location;lat;lon;timestamp;temperature;humidity
18502;DHT22;68437;52.236;5.710;2023-06-22T00:01:16;17.80;99.90
18502;DHT22;68437;52.236;5.710;2023-06-22T00:03:42;17.80;99.90
18502;DHT22;68437;52.236;5.710;2023-06-22T00:06:12;17.80;99.90
18502;DHT22;68437;52.236;5.710;2023-06-22T00:08:39;17.80;99.90
18502;DHT22;68437;52.236;5.710;2023-06-22T00:11:06;17.80;99.90
18502;DHT22;68437;52.236;5.710;2023-06-22T00:13:33;17.80;99.90
18502;DHT22;68437;52.236;5.710;2023-06-22T00:15:59;17.80;99.90
18502;DHT22;68437;52.236;5.710;2023-06-22T00:18:28;17.70;99.90
18502;DHT22;68437;52.236;5.710;2023-06-22T00:20:56;17.60;99.90
18502;DHT22;68437;52.236;5.710;2023-06-22T00:23:25;17.50;99.90
18502;DHT22;68437;52.236;5.710;2023-06-22T00:25:52;17.50;99.90
18502;DHT22;68437;52.236;5.710;2023-06-22T00:28:19;17.60;99.90
18502;DHT22;68437;52.236;5.710;2023-06-22T00:30:47;17.50;99.90
18502;DHT22;68437;52.236;5.710;2023-06-22T00:33:20;17.50;99.90
18502;DHT22;68437;52.236;5.710;2023-06-22T00:35:46;17.50;99.90
18502;DHT22;68437;52.236;5.710;2023-06-22T00:38:13;17.60;99.90
18502;DHT22;68437;52.236;5.710;2023-06-22T00:40:44;17.60;99.90
18502;DHT22;68437;52.236;5.710;2023-06-22T00:43:11;17.60;99.90
18502;DHT22;68437;52.236;5.710;2023-06-22T00:45:38;17.50;99.90
18502;DHT22;68437;52.236;5.710;2023-06-22T00:48:06;17.30;99.90
18502;DHT22;68437;52.236;5.710;2023-06-22T00:50:34;17.20;99.90
18502;DHT22;68437;52.236;5.710;2023-06-22T00:53:03;17.30;99.90
18502;DHT22;68437;52.236;5.710;2023-06-22T00:55:33;17.30;99.90
18502;DHT22;68437;52.236;5.710;2023-06-22T00:58:04;17.30;99.90
18502;DHT22;68437;52.236;5.710;2023-06-22T01:00:33;17.30;99.90
18502;DHT22;68437;52.236;5.710;2023-06-22T01:03:02;17.20;99.90
18502;DHT22;68437;52.236;5.710;2023-06-22T01:05:29;17.10;99.90
18502;DHT22;68437;52.236;5.710;2023-06-22T01:08:04;17.00;99.90
18502;DHT22;68437;52.236;5.710;2023-06-22T01:10:37;17.00;99.90
18502;DHT22;68437;52.236;5.710;2023-06-22T01:13:14;17.00;99.90
18502;DHT22;68437;52.236;5.710;2023-06-22T01:15:45;17.10;99.90
18502;DHT22;68437;52.236;5.710;2023-06-22T01:18:17;17.00;99.90
18502;DHT22;68437;52.236;5.710;2023-06-22T01:20:45;17.00;99.90
18502;DHT22;68437;52.236;5.710;2023-06-22T01:23:25;17.00;99.90
18502;DHT22;68437;52.236;5.710;2023-06-22T01:26:06;16.90;99.90
18502;DHT22;68437;52.236;5.710;2023-06-22T01:28:43;16.80;99.90
18502;DHT22;68437;52.236;5.710;2023-06-22T01:31:13;16.80;99.90
18502;DHT22;68437;52.236;5.710;2023-06-22T01:33:46;16.80;99.90
18502;DHT22;68437;52.236;5.710;2023-06-22T01:36:15;16.80;99.90
18502;DHT22;68437;52.236;5.710;2023-06-22T01:38:43;16.70;99.90
18502;DHT22;68437;52.236;5.710;2023-06-22T01:41:11;16.70;99.90
18502;DHT22;68437;52.236;5.710;2023-06-22T01:43:39;16.70;99.90
18502;DHT22;68437;52.236;5.710;2023-06-22T01:46:08;16.60;99.90
18502;DHT22;68437;52.236;5.710;2023-06-22T01:48:35;16.50;99.90
18502;DHT22;68437;52.236;5.710;2023-06-22T01:51:02;16.50;99.90
18502;DHT22;68437;52.236;5.710;2023-06-22T01:53:32;16.40;99.90
18502;DHT22;68437;52.236;5.710;2023-06-22T01:55:59;16.40;99.90
18502;DHT22;68437;52.236;5.710;2023-06-22T01:58:27;16.40;99.90
18502;DHT22;68437;52.236;5.710;2023-06-22T02:00:58;16.50;99.90
18502;DHT22;68437;52.236;5.710;2023-06-22T02:03:34;16.40;99.90
18502;DHT22;68437;52.236;5.710;2023-06-22T02:06:04;16.50;99.90
18502;DHT22;68437;52.236;5.710;2023-06-22T02:08:36;16.50;99.90
18502;DHT22;68437;52.236;5.710;2023-06-22T02:11:06;16.40;99.90
18502;DHT22;68437;52.236;5.710;2023-06-22T02:13:34;16.30;99.90
18502;DHT22;68437;52.236;5.710;2023-06-22T02:16:01;16.10;99.90
18502;DHT22;68437;52.236;5.710;2023-06-22T02:18:28;16.20;99.90
18502;DHT22;68437;52.236;5.710;2023-06-22T02:20:56;16.10;99.90
18502;DHT22;68437;52.236;5.710;2023-06-22T02:23:23;16.10;99.90
18502;DHT22;68437;52.236;5.710;2023-06-22T02:25:50;16.10;99.90
18502;DHT22;68437;52.236;5.710;2023-06-22T02:28:17;16.10;99.90
18502;DHT22;68437;52.236;5.710;2023-06-22T02:30:44;16.10;99.90
18502;DHT22;68437;52.236;5.710;2023-06-22T02:33:11;16.10;99.90
18502;DHT22;68437;52.236;5.710;2023-06-22T02:35:38;16.10;99.90
18502;DHT22;68437;52.236;5.710;2023-06-22T02:38:06;16.10;99.90
18502;DHT22;68437;52.236;5.710;2023-06-22T02:40:33;16.10;99.90
18502;DHT22;68437;52.236;5.710;2023-06-22T02:43:03;16.10;99.90
18502;DHT22;68437;52.236;5.710;2023-06-22T02:45:30;16.00;99.90
18502;DHT22;68437;52.236;5.710;2023-06-22T02:47:57;16.00;99.90
18502;DHT22;68437;52.236;5.710;2023-06-22T02:50:24;16.10;99.90
18502;DHT22;68437;52.236;5.710;2023-06-22T02:52:51;16.10;99.90
18502;DHT22;68437;52.236;5.710;2023-06-22T02:55:19;16.00;99.90
18502;DHT22;68437;52.236;5.710;2023-06-22T02:57:46;16.00;99.90
18502;DHT22;68437;52.236;5.710;2023-06-22T03:00:14;16.00;99.90
18502;DHT22;68437;52.236;5.710;2023-06-22T03:02:43;15.80;99.90
18502;DHT22;68437;52.236;5.710;2023-06-22T03:05:10;15.80;99.90
18502;DHT22;68437;52.236;5.710;2023-06-22T03:07:40;15.80;99.90
18502;DHT22;68437;52.236;5.710;2023-06-22T03:10:08;15.80;99.90
18502;DHT22;68437;52.236;5.710;2023-06-22T03:12:36;15.80;99.90
18502;DHT22;68437;52.236;5.710;2023-06-22T03:15:05;15.80;99.90
18502;DHT22;68437;52.236;5.710;2023-06-22T03:17:33;15.80;99.90
18502;DHT22;68437;52.236;5.710;2023-06-22T03:20:00;15.80;99.90
18502;DHT22;68437;52.236;5.710;2023-06-22T03:22:31;15.80;99.90
18502;DHT22;68437;52.236;5.710;2023-06-22T03:24:58;15.80;99.90
18502;DHT22;68437;52.236;5.710;2023-06-22T03:27:25;15.80;99.90
18502;DHT22;68437;52.236;5.710;2023-06-22T03:29:53;15.80;99.90
18502;DHT22;68437;52.236;5.710;2023-06-22T03:32:20;15.80;99.90
18502;DHT22;68437;52.236;5.710;2023-06-22T03:34:47;15.90;99.90
18502;DHT22;68437;52.236;5.710;2023-06-22T03:37:14;15.90;99.90
18502;DHT22;68437;52.236;5.710;2023-06-22T03:39:41;15.80;99.90
18502;DHT22;68437;52.236;5.710;2023-06-22T03:42:11;15.80;99.90
18502;DHT22;68437;52.236;5.710;2023-06-22T03:44:38;15.80;99.90
18502;DHT22;68437;52.236;5.710;2023-06-22T03:47:06;15.80;99.90
18502;DHT22;68437;52.236;5.710;2023-06-22T03:49:33;15.90;99.90
18502;DHT22;68437;52.236;5.710;2023-06-22T03:52:00;15.90;99.90
18502;DHT22;68437;52.236;5.710;2023-06-22T03:54:28;15.90;99.90
18502;DHT22;68437;52.236;5.710;2023-06-22T03:56:57;16.00;99.90
18502;DHT22;68437;52.236;5.710;2023-06-22T03:59:24;16.00;99.90
18502;DHT22;68437;52.236;5.710;2023-06-22T04:01:51;15.90;99.90
18502;DHT22;68437;52.236;5.710;2023-06-22T04:04:20;16.00;99.90
18502;DHT22;68437;52.236;5.710;2023-06-22T04:06:47;16.00;99.90
18502;DHT22;68437;52.236;5.710;2023-06-22T04:09:14;16.00;99.90
18502;DHT22;68437;52.236;5.710;2023-06-22T04:11:41;16.00;99.90
18502;DHT22;68437;52.236;5.710;2023-06-22T04:14:07;16.10;99.90
18502;DHT22;68437;52.236;5.710;2023-06-22T04:16:34;16.10;99.90
18502;DHT22;68437;52.236;5.710;2023-06-22T04:19:01;16.30;99.90
18502;DHT22;68437;52.236;5.710;2023-06-22T04:21:29;16.40;99.90
18502;DHT22;68437;52.236;5.710;2023-06-22T04:23:59;16.60;99.90
18502;DHT22;68437;52.236;5.710;2023-06-22T04:26:27;16.90;99.90
18502;DHT22;68437;52.236;5.710;2023-06-22T04:28:54;17.10;99.90
18502;DHT22;68437;52.236;5.710;2023-06-22T04:31:21;17.20;99.90
18502;DHT22;68437;52.236;5.710;2023-06-22T04:33:56;17.10;99.90
18502;DHT22;68437;52.236;5.710;2023-06-22T04:36:23;17.10;99.90
18502;DHT22;68437;52.236;5.710;2023-06-22T04:38:51;17.30;99.90
18502;DHT22;68437;52.236;5.710;2023-06-22T04:41:18;17.90;99.90
18502;DHT22;68437;52.236;5.710;2023-06-22T04:43:49;18.30;99.90
18502;DHT22;68437;52.236;5.710;2023-06-22T04:46:19;18.80;99.90
18502;DHT22;68437;52.236;5.710;2023-06-22T04:48:46;18.80;99.90
18502;DHT22;68437;52.236;5.710;2023-06-22T04:51:13;18.50;99.90
18502;DHT22;68437;52.236;5.710;2023-06-22T04:53:40;18.10;99.90
18502;DHT22;68437;52.236;5.710;2023-06-22T04:56:08;17.80;99.90
18502;DHT22;68437;52.236;5.710;2023-06-22T04:58:35;17.60;99.90
18502;DHT22;68437;52.236;5.710;2023-06-22T05:01:02;17.30;99.90
18502;DHT22;68437;52.236;5.710;2023-06-22T05:03:29;17.20;99.90
18502;DHT22;68437;52.236;5.710;2023-06-22T05:05:56;17.20;99.90
18502;DHT22;68437;52.236;5.710;2023-06-22T05:08:23;17.20;99.90
18502;DHT22;68437;52.236;5.710;2023-06-22T05:10:52;17.20;99.90
18502;DHT22;68437;52.236;5.710;2023-06-22T05:13:20;17.20;99.90
18502;DHT22;68437;52.236;5.710;2023-06-22T05:15:47;17.10;99.90
18502;DHT22;68437;52.236;5.710;2023-06-22T05:18:14;17.20;99.90
18502;DHT22;68437;52.236;5.710;2023-06-22T05:20:41;17.20;99.90
18502;DHT22;68437;52.236;5.710;2023-06-22T05:23:07;17.30;99.90
18502;DHT22;68437;52.236;5.710;2023-06-22T05:25:35;17.40;99.90
18502;DHT22;68437;52.236;5.710;2023-06-22T05:28:01;17.50;99.90
18502;DHT22;68437;52.236;5.710;2023-06-22T05:30:38;17.60;99.90
18502;DHT22;68437;52.236;5.710;2023-06-22T05:33:05;17.70;99.90
18502;DHT22;68437;52.236;5.710;2023-06-22T05:35:32;17.70;99.90
18502;DHT22;68437;52.236;5.710;2023-06-22T05:37:59;17.90;99.90
18502;DHT22;68437;52.236;5.710;2023-06-22T05:40:26;18.00;99.90
18502;DHT22;68437;52.236;5.710;2023-06-22T05:42:53;17.90;99.90
18502;DHT22;68437;52.236;5.710;2023-06-22T05:45:20;18.00;99.90
18502;DHT22;68437;52.236;5.710;2023-06-22T05:47:48;18.10;99.90
18502;DHT22;68437;52.236;5.710;2023-06-22T05:50:15;18.20;99.90
18502;DHT22;68437;52.236;5.710;2023-06-22T05:52:44;18.30;99.90
18502;DHT22;68437;52.236;5.710;2023-06-22T05:55:11;18.40;99.90
18502;DHT22;68437;52.236;5.710;2023-06-22T05:57:43;18.60;99.90
18502;DHT22;68437;52.236;5.710;2023-06-22T06:00:10;18.70;99.90
18502;DHT22;68437;52.236;5.710;2023-06-22T06:02:39;18.90;99.90
18502;DHT22;68437;52.236;5.710;2023-06-22T06:05:11;18.90;99.90
18502;DHT22;68437;52.236;5.710;2023-06-22T06:07:39;19.00;99.90
18502;DHT22;68437;52.236;5.710;2023-06-22T06:10:09;19.00;99.90
18502;DHT22;68437;52.236;5.710;2023-06-22T06:12:36;19.20;99.90
18502;DHT22;68437;52.236;5.710;2023-06-22T06:15:03;19.30;99.90
18502;DHT22;68437;52.236;5.710;2023-06-22T06:17:30;19.40;99.90
18502;DHT22;68437;52.236;5.710;2023-06-22T06:19:59;19.50;99.90
18502;DHT22;68437;52.236;5.710;2023-06-22T06:22:27;19.60;99.90
18502;DHT22;68437;52.236;5.710;2023-06-22T06:24:54;19.60;99.90
18502;DHT22;68437;52.236;5.710;2023-06-22T06:27:21;19.70;99.90
18502;DHT22;68437;52.236;5.710;2023-06-22T06:29:55;19.70;99.90
18502;DHT22;68437;52.236;5.710;2023-06-22T06:32:21;19.80;99.90
18502;DHT22;68437;52.236;5.710;2023-06-22T06:34:48;19.90;99.90
18502;DHT22;68437;52.236;5.710;2023-06-22T06:37:16;20.00;99.90
18502;DHT22;68437;52.236;5.710;2023-06-22T06:39:45;20.10;99.90
18502;DHT22;68437;52.236;5.710;2023-06-22T06:42:12;20.10;99.90
18502;DHT22;68437;52.236;5.710;2023-06-22T06:44:39;20.20;99.90
18502;DHT22;68437;52.236;5.710;2023-06-22T06:47:06;20.30;99.90
18502;DHT22;68437;52.236;5.710;2023-06-22T06:49:33;20.30;99.90
18502;DHT22;68437;52.236;5.710;2023-06-22T06:52:04;20.40;99.90
18502;DHT22;68437;52.236;5.710;2023-06-22T06:54:31;20.40;99.90
18502;DHT22;68437;52.236;5.710;2023-06-22T06:56:59;20.60;99.90
18502;DHT22;68437;52.236;5.710;2023-06-22T06:59:28;20.60;99.90
18502;DHT22;68437;52.236;5.710;2023-06-22T07:01:55;20.60;99.90
18502;DHT22;68437;52.236;5.710;2023-06-22T07:04:22;20.80;99.90
18502;DHT22;68437;52.236;5.710;2023-06-22T07:06:49;20.90;99.90
18502;DHT22;68437;52.236;5.710;2023-06-22T07:09:18;21.00;99.90
18502;DHT22;68437;52.236;5.710;2023-06-22T07:11:45;21.00;99.90
18502;DHT22;68437;52.236;5.710;2023-06-22T07:14:14;21.10;99.90
18502;DHT22;68437;52.236;5.710;2023-06-22T07:16:40;21.00;99.90
18502;DHT22;68437;52.236;5.710;2023-06-22T07:19:07;21.10;99.90
18502;DHT22;68437;52.236;5.710;2023-06-22T07:21:34;21.20;99.90
18502;DHT22;68437;52.236;5.710;2023-06-22T07:24:01;21.30;99.90
18502;DHT22;68437;52.236;5.710;2023-06-22T07:26:28;21.40;99.90
18502;DHT22;68437;52.236;5.710;2023-06-22T07:28:57;21.50;99.90
18502;DHT22;68437;52.236;5.710;2023-06-22T07:31:28;21.60;99.90
18502;DHT22;68437;52.236;5.710;2023-06-22T07:33:55;21.70;99.90
18502;DHT22;68437;52.236;5.710;2023-06-22T07:36:22;21.70;99.90
18502;DHT22;68437;52.236;5.710;2023-06-22T07:38:49;21.60;99.90
18502;DHT22;68437;52.236;5.710;2023-06-22T07:41:16;21.70;99.90
18502;DHT22;68437;52.236;5.710;2023-06-22T07:43:45;21.90;99.90
18502;DHT22;68437;52.236;5.710;2023-06-22T07:46:11;21.90;99.90
18502;DHT22;68437;52.236;5.710;2023-06-22T07:48:40;22.00;99.90
18502;DHT22;68437;52.236;5.710;2023-06-22T07:51:07;22.20;99.90
18502;DHT22;68437;52.236;5.710;2023-06-22T07:53:34;22.30;99.90
18502;DHT22;68437;52.236;5.710;2023-06-22T07:56:01;22.50;99.90
18502;DHT22;68437;52.236;5.710;2023-06-22T07:58:32;22.60;99.90
18502;DHT22;68437;52.236;5.710;2023-06-22T08:00:59;22.60;99.90
18502;DHT22;68437;52.236;5.710;2023-06-22T08:03:26;22.60;99.90
18502;DHT22;68437;52.236;5.710;2023-06-22T08:05:55;22.60;99.90
18502;DHT22;68437;52.236;5.710;2023-06-22T08:08:22;22.60;99.90
18502;DHT22;68437;52.236;5.710;2023-06-22T08:10:49;22.50;99.90
18502;DHT22;68437;52.236;5.710;2023-06-22T08:13:15;22.50;99.90
18502;DHT22;68437;52.236;5.710;2023-06-22T08:15:42;22.60;99.90
18502;DHT22;68437;52.236;5.710;2023-06-22T08:18:09;22.60;99.90
18502;DHT22;68437;52.236;5.710;2023-06-22T08:20:36;22.70;99.90
18502;DHT22;68437;52.236;5.710;2023-06-22T08:23:05;22.80;99.90
18502;DHT22;68437;52.236;5.710;2023-06-22T08:25:31;22.90;99.90
18502;DHT22;68437;52.236;5.710;2023-06-22T08:27:59;23.00;99.90
18502;DHT22;68437;52.236;5.710;2023-06-22T08:30:27;23.10;99.90
18502;DHT22;68437;52.236;5.710;2023-06-22T08:32:54;23.30;99.90
18502;DHT22;68437;52.236;5.710;2023-06-22T08:35:22;23.40;99.90
18502;DHT22;68437;52.236;5.710;2023-06-22T08:37:48;23.60;99.90
18502;DHT22;68437;52.236;5.710;2023-06-22T08:40:19;23.70;99.90
18502;DHT22;68437;52.236;5.710;2023-06-22T08:42:47;23.80;99.90
18502;DHT22;68437;52.236;5.710;2023-06-22T08:45:15;23.90;99.90
18502;DHT22;68437;52.236;5.710;2023-06-22T08:47:42;24.00;99.90
18502;DHT22;68437;52.236;5.710;2023-06-22T08:50:10;24.20;99.90
18502;DHT22;68437;52.236;5.710;2023-06-22T08:52:37;24.30;99.90
18502;DHT22;68437;52.236;5.710;2023-06-22T08:55:07;24.30;99.90
18502;DHT22;68437;52.236;5.710;2023-06-22T08:57:36;24.40;99.90
18502;DHT22;68437;52.236;5.710;2023-06-22T09:00:06;24.30;99.90
18502;DHT22;68437;52.236;5.710;2023-06-22T09:02:41;24.20;99.90
18502;DHT22;68437;52.236;5.710;2023-06-22T09:05:08;24.20;99.90
18502;DHT22;68437;52.236;5.710;2023-06-22T09:07:35;24.20;99.90
18502;DHT22;68437;52.236;5.710;2023-06-22T09:10:03;24.10;99.90
18502;DHT22;68437;52.236;5.710;2023-06-22T09:12:31;24.10;99.90
18502;DHT22;68437;52.236;5.710;2023-06-22T09:15:08;24.20;99.90
18502;DHT22;68437;52.236;5.710;2023-06-22T09:17:35;24.50;99.90
18502;DHT22;68437;52.236;5.710;2023-06-22T09:20:02;24.80;99.90
18502;DHT22;68437;52.236;5.710;2023-06-22T09:22:31;25.00;99.90
18502;DHT22;68437;52.236;5.710;2023-06-22T09:24:59;25.00;99.90
18502;DHT22;68437;52.236;5.710;2023-06-22T09:27:26;25.10;99.90
18502;DHT22;68437;52.236;5.710;2023-06-22T09:29:53;25.00;99.90
18502;DHT22;68437;52.236;5.710;2023-06-22T09:32:21;24.80;99.90
18502;DHT22;68437;52.236;5.710;2023-06-22T09:34:48;24.80;99.90
18502;DHT22;68437;52.236;5.710;2023-06-22T09:37:15;24.80;99.90
18502;DHT22;68437;52.236;5.710;2023-06-22T09:39:42;24.90;99.90
18502;DHT22;68437;52.236;5.710;2023-06-22T09:42:09;24.80;99.90
18502;DHT22;68437;52.236;5.710;2023-06-22T09:44:36;24.80;99.90
18502;DHT22;68437;52.236;5.710;2023-06-22T09:47:03;24.90;99.90
18502;DHT22;68437;52.236;5.710;2023-06-22T09:49:31;25.00;99.90
18502;DHT22;68437;52.236;5.710;2023-06-22T09:51:58;25.20;99.90
18502;DHT22;68437;52.236;5.710;2023-06-22T09:54:26;25.10;99.90
18502;DHT22;68437;52.236;5.710;2023-06-22T09:56:52;25.10;99.90
18502;DHT22;68437;52.236;5.710;2023-06-22T09:59:19;25.10;99.90
18502;DHT22;68437;52.236;5.710;2023-06-22T10:01:46;25.10;99.90
18502;DHT22;68437;52.236;5.710;2023-06-22T10:04:13;25.00;99.90
18502;DHT22;68437;52.236;5.710;2023-06-22T10:06:41;25.00;99.90
18502;DHT22;68437;52.236;5.710;2023-06-22T10:09:08;25.10;99.90
18502;DHT22;68437;52.236;5.710;2023-06-22T10:11:35;25.00;99.90
18502;DHT22;68437;52.236;5.710;2023-06-22T10:14:02;24.90;99.90
18502;DHT22;68437;52.236;5.710;2023-06-22T10:16:33;24.90;99.90
18502;DHT22;68437;52.236;5.710;2023-06-22T10:19:01;25.00;99.90
18502;DHT22;68437;52.236;5.710;2023-06-22T10:21:31;25.00;99.90
18502;DHT22;68437;52.236;5.710;2023-06-22T10:24:01;25.00;99.90
18502;DHT22;68437;52.236;5.710;2023-06-22T10:26:31;24.90;99.90
18502;DHT22;68437;52.236;5.710;2023-06-22T10:28:58;24.90;99.90
18502;DHT22;68437;52.236;5.710;2023-06-22T10:31:25;24.70;99.90
18502;DHT22;68437;52.236;5.710;2023-06-22T10:33:52;24.60;99.90
18502;DHT22;68437;52.236;5.710;2023-06-22T10:36:19;24.60;99.90
18502;DHT22;68437;52.236;5.710;2023-06-22T10:38:46;24.60;99.90
18502;DHT22;68437;52.236;5.710;2023-06-22T10:41:15;24.40;99.90
18502;DHT22;68437;52.236;5.710;2023-06-22T10:43:42;24.40;99.90
18502;DHT22;68437;52.236;5.710;2023-06-22T10:46:09;24.30;99.90
18502;DHT22;68437;52.236;5.710;2023-06-22T10:48:36;24.40;99.90
18502;DHT22;68437;52.236;5.710;2023-06-22T10:51:03;24.40;99.90
18502;DHT22;68437;52.236;5.710;2023-06-22T10:53:30;24.40;99.90
18502;DHT22;68437;52.236;5.710;2023-06-22T10:56:00;24.40;99.90
18502;DHT22;68437;52.236;5.710;2023-06-22T10:58:28;24.30;99.90
18502;DHT22;68437;52.236;5.710;2023-06-22T11:00:55;24.30;99.90
18502;DHT22;68437;52.236;5.710;2023-06-22T11:03:22;24.20;99.90
18502;DHT22;68437;52.236;5.710;2023-06-22T11:05:49;24.30;99.90
18502;DHT22;68437;52.236;5.710;2023-06-22T11:08:15;24.40;99.90
18502;DHT22;68437;52.236;5.710;2023-06-22T11:10:43;24.50;99.90
18502;DHT22;68437;52.236;5.710;2023-06-22T11:13:10;24.50;99.90
18502;DHT22;68437;52.236;5.710;2023-06-22T11:15:38;24.50;99.90
18502;DHT22;68437;52.236;5.710;2023-06-22T11:18:05;24.50;99.90
18502;DHT22;68437;52.236;5.710;2023-06-22T11:20:33;24.50;99.90
18502;DHT22;68437;52.236;5.710;2023-06-22T11:23:04;24.60;99.90
18502;DHT22;68437;52.236;5.710;2023-06-22T11:25:31;24.70;99.90
18502;DHT22;68437;52.236;5.710;2023-06-22T11:28:00;24.80;99.90
18502;DHT22;68437;52.236;5.710;2023-06-22T11:30:27;24.80;99.90
18502;DHT22;68437;52.236;5.710;2023-06-22T11:32:56;24.90;99.90
18502;DHT22;68437;52.236;5.710;2023-06-22T11:35:23;24.90;99.90
18502;DHT22;68437;52.236;5.710;2023-06-22T11:37:50;24.90;99.90
18502;DHT22;68437;52.236;5.710;2023-06-22T11:40:17;25.00;99.90
18502;DHT22;68437;52.236;5.710;2023-06-22T11:42:44;25.00;99.90
18502;DHT22;68437;52.236;5.710;2023-06-22T11:45:11;24.90;99.90
18502;DHT22;68437;52.236;5.710;2023-06-22T11:47:37;24.90;99.90
18502;DHT22;68437;52.236;5.710;2023-06-22T11:50:11;24.90;99.90
18502;DHT22;68437;52.236;5.710;2023-06-22T11:52:38;25.00;99.90
18502;DHT22;68437;52.236;5.710;2023-06-22T11:55:06;25.00;99.90
18502;DHT22;68437;52.236;5.710;2023-06-22T11:57:34;24.90;99.90
18502;DHT22;68437;52.236;5.710;2023-06-22T12:00:01;24.80;99.90
18502;DHT22;68437;52.236;5.710;2023-06-22T12:02:31;24.80;99.90
18502;DHT22;68437;52.236;5.710;2023-06-22T12:04:58;24.80;99.90
18502;DHT22;68437;52.236;5.710;2023-06-22T12:07:26;24.80;99.90
18502;DHT22;68437;52.236;5.710;2023-06-22T12:09:53;24.80;99.90
18502;DHT22;68437;52.236;5.710;2023-06-22T12:12:20;24.80;99.90
18502;DHT22;68437;52.236;5.710;2023-06-22T12:14:47;24.80;99.90
18502;DHT22;68437;52.236;5.710;2023-06-22T12:17:14;24.70;99.90
18502;DHT22;68437;52.236;5.710;2023-06-22T12:19:40;24.60;99.90
18502;DHT22;68437;52.236;5.710;2023-06-22T12:22:09;24.50;99.90
18502;DHT22;68437;52.236;5.710;2023-06-22T12:24:38;24.50;99.90
18502;DHT22;68437;52.236;5.710;2023-06-22T12:27:05;24.50;99.90
18502;DHT22;68437;52.236;5.710;2023-06-22T12:29:31;24.50;99.90
18502;DHT22;68437;52.236;5.710;2023-06-22T12:32:00;24.30;99.90
18502;DHT22;68437;52.236;5.710;2023-06-22T12:34:26;24.30;99.90
18502;DHT22;68437;52.236;5.710;2023-06-22T12:36:53;24.30;99.90
18502;DHT22;68437;52.236;5.710;2023-06-22T12:39:20;24.30;99.90
18502;DHT22;68437;52.236;5.710;2023-06-22T12:41:49;24.30;99.90
18502;DHT22;68437;52.236;5.710;2023-06-22T12:44:15;24.30;99.90
18502;DHT22;68437;52.236;5.710;2023-06-22T12:46:42;24.30;99.90
18502;DHT22;68437;52.236;5.710;2023-06-22T12:49:09;24.20;99.90
18502;DHT22;68437;52.236;5.710;2023-06-22T12:51:40;24.10;99.90
18502;DHT22;68437;52.236;5.710;2023-06-22T12:54:08;24.10;99.90
18502;DHT22;68437;52.236;5.710;2023-06-22T12:56:36;24.10;99.90
18502;DHT22;68437;52.236;5.710;2023-06-22T12:59:05;24.10;99.90
18502;DHT22;68437;52.236;5.710;2023-06-22T13:01:32;24.10;99.90
18502;DHT22;68437;52.236;5.710;2023-06-22T13:03:59;24.10;99.90
18502;DHT22;68437;52.236;5.710;2023-06-22T13:06:28;24.00;99.90
18502;DHT22;68437;52.236;5.710;2023-06-22T13:08:57;24.10;99.90
18502;DHT22;68437;52.236;5.710;2023-06-22T13:11:24;24.10;99.90
18502;DHT22;68437;52.236;5.710;2023-06-22T13:13:51;24.10;99.90
18502;DHT22;68437;52.236;5.710;2023-06-22T13:16:19;24.10;99.90
18502;DHT22;68437;52.236;5.710;2023-06-22T13:18:46;23.90;99.90
18502;DHT22;68437;52.236;5.710;2023-06-22T13:21:13;23.70;99.90
18502;DHT22;68437;52.236;5.710;2023-06-22T13:23:40;23.40;99.90
18502;DHT22;68437;52.236;5.710;2023-06-22T13:26:07;23.20;99.90
18502;DHT22;68437;52.236;5.710;2023-06-22T13:28:34;22.90;99.90
18502;DHT22;68437;52.236;5.710;2023-06-22T13:31:01;22.70;99.90
18502;DHT22;68437;52.236;5.710;2023-06-22T13:33:29;22.40;99.90
18502;DHT22;68437;52.236;5.710;2023-06-22T13:35:56;22.30;99.90
18502;DHT22;68437;52.236;5.710;2023-06-22T13:38:23;22.10;99.90
18502;DHT22;68437;52.236;5.710;2023-06-22T13:40:50;22.00;99.90
18502;DHT22;68437;52.236;5.710;2023-06-22T13:43:17;22.00;99.90
18502;DHT22;68437;52.236;5.710;2023-06-22T13:45:43;21.90;99.90
18502;DHT22;68437;52.236;5.710;2023-06-22T13:48:10;21.90;99.90
18502;DHT22;68437;52.236;5.710;2023-06-22T13:50:38;22.00;99.90
18502;DHT22;68437;52.236;5.710;2023-06-22T13:53:05;21.90;99.90
18502;DHT22;68437;52.236;5.710;2023-06-22T13:55:32;22.00;99.90
18502;DHT22;68437;52.236;5.710;2023-06-22T13:57:59;22.00;99.90
18502;DHT22;68437;52.236;5.710;2023-06-22T14:00:26;22.00;99.90
18502;DHT22;68437;52.236;5.710;2023-06-22T14:02:55;22.00;99.90
18502;DHT22;68437;52.236;5.710;2023-06-22T14:05:21;22.00;99.90
18502;DHT22;68437;52.236;5.710;2023-06-22T14:07:50;22.00;99.90
18502;DHT22;68437;52.236;5.710;2023-06-22T14:10:17;22.00;99.90
18502;DHT22;68437;52.236;5.710;2023-06-22T14:12:46;22.00;99.90
18502;DHT22;68437;52.236;5.710;2023-06-22T14:15:13;22.00;99.90
18502;DHT22;68437;52.236;5.710;2023-06-22T14:17:40;21.90;99.90
18502;DHT22;68437;52.236;5.710;2023-06-22T14:20:08;21.90;99.90
18502;DHT22;68437;52.236;5.710;2023-06-22T14:22:35;21.70;99.90
18502;DHT22;68437;52.236;5.710;2023-06-22T14:25:05;21.60;99.90
18502;DHT22;68437;52.236;5.710;2023-06-22T14:27:34;21.60;99.90
18502;DHT22;68437;52.236;5.710;2023-06-22T14:30:01;21.50;99.90
18502;DHT22;68437;52.236;5.710;2023-06-22T14:32:28;21.50;99.90
18502;DHT22;68437;52.236;5.710;2023-06-22T14:34:56;21.40;99.90
18502;DHT22;68437;52.236;5.710;2023-06-22T14:37:23;21.30;99.90
18502;DHT22;68437;52.236;5.710;2023-06-22T14:39:50;21.30;99.90
18502;DHT22;68437;52.236;5.710;2023-06-22T14:42:18;21.10;99.90
18502;DHT22;68437;52.236;5.710;2023-06-22T14:44:45;21.00;99.90
18502;DHT22;68437;52.236;5.710;2023-06-22T14:47:12;20.90;99.90
18502;DHT22;68437;52.236;5.710;2023-06-22T14:49:39;20.80;99.90
18502;DHT22;68437;52.236;5.710;2023-06-22T14:52:07;20.60;99.90
18502;DHT22;68437;52.236;5.710;2023-06-22T14:54:35;20.60;99.90
18502;DHT22;68437;52.236;5.710;2023-06-22T14:57:02;20.40;99.90
18502;DHT22;68437;52.236;5.710;2023-06-22T14:59:30;20.40;99.90
18502;DHT22;68437;52.236;5.710;2023-06-22T15:01:57;20.40;99.90
18502;DHT22;68437;52.236;5.710;2023-06-22T15:04:24;20.40;99.90
18502;DHT22;68437;52.236;5.710;2023-06-22T15:06:52;20.30;99.90
18502;DHT22;68437;52.236;5.710;2023-06-22T15:09:19;20.30;99.90
18502;DHT22;68437;52.236;5.710;2023-06-22T15:11:49;20.30;99.90
18502;DHT22;68437;52.236;5.710;2023-06-22T15:14:18;20.30;99.90
18502;DHT22;68437;52.236;5.710;2023-06-22T15:16:47;20.20;99.90
18502;DHT22;68437;52.236;5.710;2023-06-22T15:19:13;20.30;99.90
18502;DHT22;68437;52.236;5.710;2023-06-22T15:21:40;20.20;99.90
18502;DHT22;68437;52.236;5.710;2023-06-22T15:24:07;20.10;99.90
18502;DHT22;68437;52.236;5.710;2023-06-22T15:26:34;20.00;99.90
18502;DHT22;68437;52.236;5.710;2023-06-22T15:29:01;19.90;99.90
18502;DHT22;68437;52.236;5.710;2023-06-22T15:31:28;19.80;99.90
18502;DHT22;68437;52.236;5.710;2023-06-22T15:33:56;19.80;99.90